Espen Wiik er pilot PDF Skriv ut E-post
Skrevet av Dmytro Yakovenko   
lørdag 17. mars 2018 12:59

Årets andre PPL-A sertifikatet i Kjevik Flyklubb kom den 14. mars 2018 når Espen Wiik har bestått sin skill test i strålende vintervær med Arne Ribe som kontrollant. Klubben og skolen gratulerer Espen med rykende fersk PPL-A sertifikatet! Vi ønsker Espen mange flotte flyopplevelser og lykke til med VFR-natt kurset. Hovedinstruktøren har vært Christoffer Lund.

 
 
METAR
2018/04/26 12:50 ENCN 261250Z 19014KT 9999 FEW019TCU SCT026 09/06 Q1003
TAF
2018/04/26 12:36 TAF TAF ENCN 261100Z 2612/2621 19012KT 9999 FEW008 BKN015 TEMPO 2612/2621 SHRA BKN007 FEW015CB
LN-KFK
Groundet
VFR dag
05:01 - 21:51
Brannvakt
Inaktiv
Banner
Banner
Banner
Banner
Banner